sensor_id;sensor_type;location;lat;lon;timestamp;pressure;altitude;pressure_sealevel;temperature
70969;BMP280;58630;43.022;25.100;2023-07-20T00:02:17;;;;30.40
70969;BMP280;58630;43.022;25.100;2023-07-20T00:04:43;;;;30.60
70969;BMP280;58630;43.022;25.100;2023-07-20T00:07:08;;;;30.90
70969;BMP280;58630;43.022;25.100;2023-07-20T00:09:34;;;;30.90
70969;BMP280;58630;43.022;25.100;2023-07-20T00:11:59;;;;30.90
70969;BMP280;58630;43.022;25.100;2023-07-20T00:14:25;;;;30.80
70969;BMP280;58630;43.022;25.100;2023-07-20T00:16:51;;;;30.90
70969;BMP280;58630;43.022;25.100;2023-07-20T00:19:24;;;;30.90
70969;BMP280;58630;43.022;25.100;2023-07-20T00:21:50;;;;31.00
70969;BMP280;58630;43.022;25.100;2023-07-20T00:24:15;;;;31.10
70969;BMP280;58630;43.022;25.100;2023-07-20T00:26:41;;;;31.00
70969;BMP280;58630;43.022;25.100;2023-07-20T00:29:06;;;;30.90
70969;BMP280;58630;43.022;25.100;2023-07-20T00:31:32;;;;30.90
70969;BMP280;58630;43.022;25.100;2023-07-20T00:34:00;;;;30.90
70969;BMP280;58630;43.022;25.100;2023-07-20T00:36:25;;;;31.00
70969;BMP280;58630;43.022;25.100;2023-07-20T00:38:51;;;;31.00
70969;BMP280;58630;43.022;25.100;2023-07-20T00:41:16;;;;31.10
70969;BMP280;58630;43.022;25.100;2023-07-20T00:43:42;;;;31.20
70969;BMP280;58630;43.022;25.100;2023-07-20T00:46:08;;;;31.20
70969;BMP280;58630;43.022;25.100;2023-07-20T00:48:34;;;;31.00
70969;BMP280;58630;43.022;25.100;2023-07-20T00:51:00;;;;30.80
70969;BMP280;58630;43.022;25.100;2023-07-20T00:53:27;;;;30.80
70969;BMP280;58630;43.022;25.100;2023-07-20T00:55:52;;;;30.60
70969;BMP280;58630;43.022;25.100;2023-07-20T00:58:18;;;;30.60
70969;BMP280;58630;43.022;25.100;2023-07-20T01:00:44;;;;30.70
70969;BMP280;58630;43.022;25.100;2023-07-20T01:03:09;;;;30.70
70969;BMP280;58630;43.022;25.100;2023-07-20T01:05:40;;;;30.80
70969;BMP280;58630;43.022;25.100;2023-07-20T01:08:07;;;;30.90
70969;BMP280;58630;43.022;25.100;2023-07-20T01:10:42;;;;30.90
70969;BMP280;58630;43.022;25.100;2023-07-20T01:13:10;;;;31.00
70969;BMP280;58630;43.022;25.100;2023-07-20T01:15:36;;;;30.90
70969;BMP280;58630;43.022;25.100;2023-07-20T01:18:01;;;;30.70
70969;BMP280;58630;43.022;25.100;2023-07-20T01:20:29;;;;30.60
70969;BMP280;58630;43.022;25.100;2023-07-20T01:25:45;;;;30.50
70969;BMP280;58630;43.022;25.100;2023-07-20T01:31:29;;;;30.20
70969;BMP280;58630;43.022;25.100;2023-07-20T01:33:56;;;;30.10
70969;BMP280;58630;43.022;25.100;2023-07-20T01:36:23;;;;29.80
70969;BMP280;58630;43.022;25.100;2023-07-20T01:38:50;;;;29.80
70969;BMP280;58630;43.022;25.100;2023-07-20T01:41:15;;;;30.10
70969;BMP280;58630;43.022;25.100;2023-07-20T01:43:44;;;;30.10
70969;BMP280;58630;43.022;25.100;2023-07-20T01:46:10;;;;29.90
70969;BMP280;58630;43.022;25.100;2023-07-20T01:48:35;;;;29.80
70969;BMP280;58630;43.022;25.100;2023-07-20T01:51:03;;;;29.70
70969;BMP280;58630;43.022;25.100;2023-07-20T01:53:29;;;;29.50
70969;BMP280;58630;43.022;25.100;2023-07-20T01:55:54;;;;29.60
70969;BMP280;58630;43.022;25.100;2023-07-20T01:58:20;;;;29.60
70969;BMP280;58630;43.022;25.100;2023-07-20T02:00:46;;;;28.30
70969;BMP280;58630;43.022;25.100;2023-07-20T02:03:11;;;;28.40
70969;BMP280;58630;43.022;25.100;2023-07-20T02:05:37;;;;28.80
70969;BMP280;58630;43.022;25.100;2023-07-20T02:08:03;;;;28.80
70969;BMP280;58630;43.022;25.100;2023-07-20T02:10:28;;;;28.80
70969;BMP280;58630;43.022;25.100;2023-07-20T02:12:54;;;;28.80
70969;BMP280;58630;43.022;25.100;2023-07-20T02:15:20;;;;28.70
70969;BMP280;58630;43.022;25.100;2023-07-20T02:17:46;;;;28.90
70969;BMP280;58630;43.022;25.100;2023-07-20T02:20:12;;;;29.00
70969;BMP280;58630;43.022;25.100;2023-07-20T02:22:38;;;;29.10
70969;BMP280;58630;43.022;25.100;2023-07-20T02:25:04;;;;29.10
70969;BMP280;58630;43.022;25.100;2023-07-20T02:27:30;;;;29.10
70969;BMP280;58630;43.022;25.100;2023-07-20T02:29:56;;;;29.10
70969;BMP280;58630;43.022;25.100;2023-07-20T02:32:21;;;;29.10
70969;BMP280;58630;43.022;25.100;2023-07-20T02:34:47;;;;29.10
70969;BMP280;58630;43.022;25.100;2023-07-20T02:37:12;;;;29.10
70969;BMP280;58630;43.022;25.100;2023-07-20T02:39:38;;;;29.20
70969;BMP280;58630;43.022;25.100;2023-07-20T02:42:04;;;;29.30
70969;BMP280;58630;43.022;25.100;2023-07-20T02:44:30;;;;29.30
70969;BMP280;58630;43.022;25.100;2023-07-20T02:46:55;;;;29.40
70969;BMP280;58630;43.022;25.100;2023-07-20T02:49:21;;;;29.40
70969;BMP280;58630;43.022;25.100;2023-07-20T02:51:46;;;;29.40
70969;BMP280;58630;43.022;25.100;2023-07-20T02:54:12;;;;29.50
70969;BMP280;58630;43.022;25.100;2023-07-20T02:56:37;;;;29.50
70969;BMP280;58630;43.022;25.100;2023-07-20T02:59:03;;;;29.50
70969;BMP280;58630;43.022;25.100;2023-07-20T03:01:29;;;;29.50
70969;BMP280;58630;43.022;25.100;2023-07-20T03:03:55;;;;29.40
70969;BMP280;58630;43.022;25.100;2023-07-20T03:06:21;;;;29.40
70969;BMP280;58630;43.022;25.100;2023-07-20T03:08:47;;;;29.40
70969;BMP280;58630;43.022;25.100;2023-07-20T03:11:14;;;;29.30
70969;BMP280;58630;43.022;25.100;2023-07-20T03:13:41;;;;29.30
70969;BMP280;58630;43.022;25.100;2023-07-20T03:16:10;;;;29.30
70969;BMP280;58630;43.022;25.100;2023-07-20T03:18:39;;;;29.10
70969;BMP280;58630;43.022;25.100;2023-07-20T03:21:05;;;;29.10
70969;BMP280;58630;43.022;25.100;2023-07-20T03:23:31;;;;29.00
70969;BMP280;58630;43.022;25.100;2023-07-20T03:25:57;;;;29.00
70969;BMP280;58630;43.022;25.100;2023-07-20T03:28:22;;;;29.00
70969;BMP280;58630;43.022;25.100;2023-07-20T03:30:55;;;;29.00
70969;BMP280;58630;43.022;25.100;2023-07-20T03:33:21;;;;28.90
70969;BMP280;58630;43.022;25.100;2023-07-20T03:35:47;;;;28.90
70969;BMP280;58630;43.022;25.100;2023-07-20T03:38:12;;;;28.80
70969;BMP280;58630;43.022;25.100;2023-07-20T03:40:38;;;;28.70
70969;BMP280;58630;43.022;25.100;2023-07-20T03:43:03;;;;28.30
70969;BMP280;58630;43.022;25.100;2023-07-20T03:45:29;;;;28.40
70969;BMP280;58630;43.022;25.100;2023-07-20T03:47:54;;;;28.40
70969;BMP280;58630;43.022;25.100;2023-07-20T03:50:20;;;;28.40
70969;BMP280;58630;43.022;25.100;2023-07-20T03:52:45;;;;28.30
70969;BMP280;58630;43.022;25.100;2023-07-20T03:55:11;;;;28.30
70969;BMP280;58630;43.022;25.100;2023-07-20T03:57:36;;;;28.30
70969;BMP280;58630;43.022;25.100;2023-07-20T04:00:02;;;;28.30
70969;BMP280;58630;43.022;25.100;2023-07-20T04:02:30;;;;28.40
70969;BMP280;58630;43.022;25.100;2023-07-20T04:04:55;;;;28.50
70969;BMP280;58630;43.022;25.100;2023-07-20T04:07:21;;;;28.50
70969;BMP280;58630;43.022;25.100;2023-07-20T04:09:46;;;;28.60
70969;BMP280;58630;43.022;25.100;2023-07-20T04:12:12;;;;28.60
70969;BMP280;58630;43.022;25.100;2023-07-20T04:14:37;;;;28.70
70969;BMP280;58630;43.022;25.100;2023-07-20T04:17:03;;;;28.70
70969;BMP280;58630;43.022;25.100;2023-07-20T04:19:30;;;;28.60
70969;BMP280;58630;43.022;25.100;2023-07-20T04:21:55;;;;28.50
70969;BMP280;58630;43.022;25.100;2023-07-20T04:24:21;;;;28.60
70969;BMP280;58630;43.022;25.100;2023-07-20T04:26:47;;;;28.60
70969;BMP280;58630;43.022;25.100;2023-07-20T04:29:12;;;;28.60
70969;BMP280;58630;43.022;25.100;2023-07-20T04:31:38;;;;28.60
70969;BMP280;58630;43.022;25.100;2023-07-20T04:34:03;;;;28.60
70969;BMP280;58630;43.022;25.100;2023-07-20T04:36:29;;;;28.70
70969;BMP280;58630;43.022;25.100;2023-07-20T04:38:54;;;;28.80
70969;BMP280;58630;43.022;25.100;2023-07-20T04:41:20;;;;28.80
70969;BMP280;58630;43.022;25.100;2023-07-20T04:43:46;;;;28.90
70969;BMP280;58630;43.022;25.100;2023-07-20T04:46:12;;;;28.90
70969;BMP280;58630;43.022;25.100;2023-07-20T04:48:37;;;;29.00
70969;BMP280;58630;43.022;25.100;2023-07-20T04:51:03;;;;29.00
70969;BMP280;58630;43.022;25.100;2023-07-20T04:53:29;;;;29.00
70969;BMP280;58630;43.022;25.100;2023-07-20T04:55:56;;;;29.00
70969;BMP280;58630;43.022;25.100;2023-07-20T04:58:22;;;;29.00
70969;BMP280;58630;43.022;25.100;2023-07-20T05:00:48;;;;28.90
70969;BMP280;58630;43.022;25.100;2023-07-20T05:03:13;;;;28.90
70969;BMP280;58630;43.022;25.100;2023-07-20T05:05:39;;;;28.80
70969;BMP280;58630;43.022;25.100;2023-07-20T05:08:05;;;;28.90
70969;BMP280;58630;43.022;25.100;2023-07-20T05:10:30;;;;28.90
70969;BMP280;58630;43.022;25.100;2023-07-20T05:12:58;;;;28.90
70969;BMP280;58630;43.022;25.100;2023-07-20T05:15:23;;;;28.90
70969;BMP280;58630;43.022;25.100;2023-07-20T05:17:49;;;;28.90
70969;BMP280;58630;43.022;25.100;2023-07-20T05:20:14;;;;28.90
70969;BMP280;58630;43.022;25.100;2023-07-20T05:22:40;;;;28.90
70969;BMP280;58630;43.022;25.100;2023-07-20T05:25:09;;;;28.90
70969;BMP280;58630;43.022;25.100;2023-07-20T05:27:39;;;;28.90
70969;BMP280;58630;43.022;25.100;2023-07-20T05:30:05;;;;28.90
70969;BMP280;58630;43.022;25.100;2023-07-20T05:32:30;;;;28.90
70969;BMP280;58630;43.022;25.100;2023-07-20T05:34:56;;;;29.00
70969;BMP280;58630;43.022;25.100;2023-07-20T05:37:21;;;;28.90
70969;BMP280;58630;43.022;25.100;2023-07-20T05:39:47;;;;28.70
70969;BMP280;58630;43.022;25.100;2023-07-20T05:42:13;;;;28.60
70969;BMP280;58630;43.022;25.100;2023-07-20T05:44:39;;;;28.50
70969;BMP280;58630;43.022;25.100;2023-07-20T05:47:04;;;;28.50
70969;BMP280;58630;43.022;25.100;2023-07-20T05:49:30;;;;28.60
70969;BMP280;58630;43.022;25.100;2023-07-20T05:51:56;;;;28.50
70969;BMP280;58630;43.022;25.100;2023-07-20T05:54:23;;;;28.50
70969;BMP280;58630;43.022;25.100;2023-07-20T05:56:49;;;;28.50
70969;BMP280;58630;43.022;25.100;2023-07-20T05:59:14;;;;28.50
70969;BMP280;58630;43.022;25.100;2023-07-20T06:01:40;;;;28.50
70969;BMP280;58630;43.022;25.100;2023-07-20T06:04:06;;;;28.50
70969;BMP280;58630;43.022;25.100;2023-07-20T06:06:32;;;;28.60
70969;BMP280;58630;43.022;25.100;2023-07-20T06:08:59;;;;28.60
70969;BMP280;58630;43.022;25.100;2023-07-20T06:11:29;;;;28.00
70969;BMP280;58630;43.022;25.100;2023-07-20T06:13:56;;;;28.20
70969;BMP280;58630;43.022;25.100;2023-07-20T06:16:21;;;;27.90
70969;BMP280;58630;43.022;25.100;2023-07-20T06:18:47;;;;28.00
70969;BMP280;58630;43.022;25.100;2023-07-20T06:21:13;;;;27.60
70969;BMP280;58630;43.022;25.100;2023-07-20T06:23:38;;;;27.90
70969;BMP280;58630;43.022;25.100;2023-07-20T06:26:05;;;;28.10
70969;BMP280;58630;43.022;25.100;2023-07-20T06:28:31;;;;28.30
70969;BMP280;58630;43.022;25.100;2023-07-20T06:31:02;;;;28.50
70969;BMP280;58630;43.022;25.100;2023-07-20T06:33:28;;;;28.60
70969;BMP280;58630;43.022;25.100;2023-07-20T06:35:54;;;;28.70
70969;BMP280;58630;43.022;25.100;2023-07-20T06:38:19;;;;28.80
70969;BMP280;58630;43.022;25.100;2023-07-20T06:40:48;;;;28.80
70969;BMP280;58630;43.022;25.100;2023-07-20T06:43:13;;;;28.80
70969;BMP280;58630;43.022;25.100;2023-07-20T06:45:39;;;;28.80
70969;BMP280;58630;43.022;25.100;2023-07-20T06:48:04;;;;28.80
70969;BMP280;58630;43.022;25.100;2023-07-20T06:50:30;;;;28.70
70969;BMP280;58630;43.022;25.100;2023-07-20T06:52:55;;;;28.80
70969;BMP280;58630;43.022;25.100;2023-07-20T06:55:21;;;;28.70
70969;BMP280;58630;43.022;25.100;2023-07-20T06:57:46;;;;28.70
70969;BMP280;58630;43.022;25.100;2023-07-20T07:00:12;;;;28.70
70969;BMP280;58630;43.022;25.100;2023-07-20T07:02:38;;;;28.70
70969;BMP280;58630;43.022;25.100;2023-07-20T07:05:04;;;;28.70
70969;BMP280;58630;43.022;25.100;2023-07-20T07:07:29;;;;28.70
70969;BMP280;58630;43.022;25.100;2023-07-20T07:09:55;;;;28.70
70969;BMP280;58630;43.022;25.100;2023-07-20T07:12:20;;;;28.70
70969;BMP280;58630;43.022;25.100;2023-07-20T07:14:46;;;;28.40
70969;BMP280;58630;43.022;25.100;2023-07-20T07:17:11;;;;28.60
70969;BMP280;58630;43.022;25.100;2023-07-20T07:19:37;;;;28.70
70969;BMP280;58630;43.022;25.100;2023-07-20T07:22:03;;;;28.70
70969;BMP280;58630;43.022;25.100;2023-07-20T07:24:29;;;;28.80
70969;BMP280;58630;43.022;25.100;2023-07-20T07:26:59;;;;28.90
70969;BMP280;58630;43.022;25.100;2023-07-20T07:29:24;;;;28.70
70969;BMP280;58630;43.022;25.100;2023-07-20T07:31:51;;;;28.80
70969;BMP280;58630;43.022;25.100;2023-07-20T07:34:16;;;;28.90
70969;BMP280;58630;43.022;25.100;2023-07-20T07:36:42;;;;28.80
70969;BMP280;58630;43.022;25.100;2023-07-20T07:39:08;;;;28.90
70969;BMP280;58630;43.022;25.100;2023-07-20T07:41:34;;;;28.90
70969;BMP280;58630;43.022;25.100;2023-07-20T07:44:00;;;;28.90
70969;BMP280;58630;43.022;25.100;2023-07-20T07:46:25;;;;29.00
70969;BMP280;58630;43.022;25.100;2023-07-20T07:48:51;;;;28.90
70969;BMP280;58630;43.022;25.100;2023-07-20T07:51:17;;;;28.90
70969;BMP280;58630;43.022;25.100;2023-07-20T07:53:42;;;;28.80
70969;BMP280;58630;43.022;25.100;2023-07-20T07:56:09;;;;28.90
70969;BMP280;58630;43.022;25.100;2023-07-20T07:58:34;;;;28.90
70969;BMP280;58630;43.022;25.100;2023-07-20T08:01:00;;;;28.90
70969;BMP280;58630;43.022;25.100;2023-07-20T08:03:29;;;;29.00
70969;BMP280;58630;43.022;25.100;2023-07-20T08:05:56;;;;29.00
70969;BMP280;58630;43.022;25.100;2023-07-20T08:08:22;;;;29.00
70969;BMP280;58630;43.022;25.100;2023-07-20T08:10:48;;;;29.00
70969;BMP280;58630;43.022;25.100;2023-07-20T08:13:13;;;;28.90
70969;BMP280;58630;43.022;25.100;2023-07-20T08:15:39;;;;28.90
70969;BMP280;58630;43.022;25.100;2023-07-20T08:18:05;;;;28.80
70969;BMP280;58630;43.022;25.100;2023-07-20T08:20:31;;;;28.70
70969;BMP280;58630;43.022;25.100;2023-07-20T08:22:57;;;;28.90
70969;BMP280;58630;43.022;25.100;2023-07-20T08:25:25;;;;28.90
70969;BMP280;58630;43.022;25.100;2023-07-20T08:27:50;;;;29.00
70969;BMP280;58630;43.022;25.100;2023-07-20T08:30:16;;;;29.00
70969;BMP280;58630;43.022;25.100;2023-07-20T08:32:41;;;;29.00
70969;BMP280;58630;43.022;25.100;2023-07-20T08:35:07;;;;29.00
70969;BMP280;58630;43.022;25.100;2023-07-20T08:37:33;;;;29.00
70969;BMP280;58630;43.022;25.100;2023-07-20T08:39:58;;;;29.00
70969;BMP280;58630;43.022;25.100;2023-07-20T08:42:24;;;;29.10
70969;BMP280;58630;43.022;25.100;2023-07-20T08:44:50;;;;29.00
70969;BMP280;58630;43.022;25.100;2023-07-20T08:47:18;;;;29.00
70969;BMP280;58630;43.022;25.100;2023-07-20T08:49:44;;;;29.00
70969;BMP280;58630;43.022;25.100;2023-07-20T08:52:12;;;;29.10
70969;BMP280;58630;43.022;25.100;2023-07-20T08:54:38;;;;29.10
70969;BMP280;58630;43.022;25.100;2023-07-20T08:57:04;;;;29.10
70969;BMP280;58630;43.022;25.100;2023-07-20T08:59:30;;;;29.10
70969;BMP280;58630;43.022;25.100;2023-07-20T09:03:31;;;;29.10
70969;BMP280;58630;43.022;25.100;2023-07-20T09:05:57;;;;29.20
70969;BMP280;58630;43.022;25.100;2023-07-20T09:08:23;;;;29.20
70969;BMP280;58630;43.022;25.100;2023-07-20T09:10:48;;;;29.10
70969;BMP280;58630;43.022;25.100;2023-07-20T09:13:14;;;;29.10
70969;BMP280;58630;43.022;25.100;2023-07-20T09:15:45;;;;29.20
70969;BMP280;58630;43.022;25.100;2023-07-20T09:18:11;;;;29.20
70969;BMP280;58630;43.022;25.100;2023-07-20T09:20:36;;;;29.20
70969;BMP280;58630;43.022;25.100;2023-07-20T09:23:05;;;;29.20
70969;BMP280;58630;43.022;25.100;2023-07-20T09:25:31;;;;29.20
70969;BMP280;58630;43.022;25.100;2023-07-20T09:27:57;;;;29.20
70969;BMP280;58630;43.022;25.100;2023-07-20T09:30:24;;;;29.30
70969;BMP280;58630;43.022;25.100;2023-07-20T09:32:50;;;;29.30
70969;BMP280;58630;43.022;25.100;2023-07-20T09:35:19;;;;29.40
70969;BMP280;58630;43.022;25.100;2023-07-20T09:37:55;;;;29.40
70969;BMP280;58630;43.022;25.100;2023-07-20T09:40:21;;;;29.30
70969;BMP280;58630;43.022;25.100;2023-07-20T09:42:47;;;;29.30
70969;BMP280;58630;43.022;25.100;2023-07-20T09:45:13;;;;29.20
70969;BMP280;58630;43.022;25.100;2023-07-20T09:47:38;;;;29.30
70969;BMP280;58630;43.022;25.100;2023-07-20T09:50:05;;;;29.30
70969;BMP280;58630;43.022;25.100;2023-07-20T09:52:37;;;;29.20
70969;BMP280;58630;43.022;25.100;2023-07-20T09:55:03;;;;29.20
70969;BMP280;58630;43.022;25.100;2023-07-20T09:57:29;;;;29.30
70969;BMP280;58630;43.022;25.100;2023-07-20T09:59:54;;;;29.30
70969;BMP280;58630;43.022;25.100;2023-07-20T10:02:20;;;;29.30
70969;BMP280;58630;43.022;25.100;2023-07-20T10:04:47;;;;29.30
70969;BMP280;58630;43.022;25.100;2023-07-20T10:07:14;;;;29.30
70969;BMP280;58630;43.022;25.100;2023-07-20T10:09:40;;;;29.30
70969;BMP280;58630;43.022;25.100;2023-07-20T10:12:07;;;;29.40
70969;BMP280;58630;43.022;25.100;2023-07-20T10:14:33;;;;29.40
70969;BMP280;58630;43.022;25.100;2023-07-20T10:17:00;;;;29.40
70969;BMP280;58630;43.022;25.100;2023-07-20T10:22:03;;;;29.40
70969;BMP280;58630;43.022;25.100;2023-07-20T10:24:29;;;;29.50
70969;BMP280;58630;43.022;25.100;2023-07-20T10:26:55;;;;29.40
70969;BMP280;58630;43.022;25.100;2023-07-20T10:29:21;;;;29.40
70969;BMP280;58630;43.022;25.100;2023-07-20T10:31:47;;;;29.40
70969;BMP280;58630;43.022;25.100;2023-07-20T10:34:13;;;;29.40
70969;BMP280;58630;43.022;25.100;2023-07-20T10:36:45;;;;29.50
70969;BMP280;58630;43.022;25.100;2023-07-20T10:42:08;;;;29.50
70969;BMP280;58630;43.022;25.100;2023-07-20T10:44:37;;;;29.50
70969;BMP280;58630;43.022;25.100;2023-07-20T10:47:03;;;;29.60
70969;BMP280;58630;43.022;25.100;2023-07-20T10:49:33;;;;29.60
70969;BMP280;58630;43.022;25.100;2023-07-20T10:51:59;;;;29.60
70969;BMP280;58630;43.022;25.100;2023-07-20T10:56:51;;;;29.70
70969;BMP280;58630;43.022;25.100;2023-07-20T10:59:17;;;;29.60
70969;BMP280;58630;43.022;25.100;2023-07-20T11:01:44;;;;29.60
70969;BMP280;58630;43.022;25.100;2023-07-20T11:04:10;;;;29.60
70969;BMP280;58630;43.022;25.100;2023-07-20T11:06:35;;;;29.70
70969;BMP280;58630;43.022;25.100;2023-07-20T11:11:35;;;;29.70
70969;BMP280;58630;43.022;25.100;2023-07-20T11:19:02;;;;29.80
70969;BMP280;58630;43.022;25.100;2023-07-20T11:21:28;;;;29.80
70969;BMP280;58630;43.022;25.100;2023-07-20T11:23:53;;;;29.90
70969;BMP280;58630;43.022;25.100;2023-07-20T11:26:20;;;;29.90
70969;BMP280;58630;43.022;25.100;2023-07-20T11:28:49;;;;30.00
70969;BMP280;58630;43.022;25.100;2023-07-20T11:31:15;;;;30.00
70969;BMP280;58630;43.022;25.100;2023-07-20T11:33:43;;;;30.00
70969;BMP280;58630;43.022;25.100;2023-07-20T11:36:09;;;;30.10
70969;BMP280;58630;43.022;25.100;2023-07-20T11:38:34;;;;30.10
70969;BMP280;58630;43.022;25.100;2023-07-20T11:41:02;;;;30.10
70969;BMP280;58630;43.022;25.100;2023-07-20T11:43:27;;;;30.10
70969;BMP280;58630;43.022;25.100;2023-07-20T11:45:53;;;;30.20
70969;BMP280;58630;43.022;25.100;2023-07-20T11:48:19;;;;30.30
70969;BMP280;58630;43.022;25.100;2023-07-20T11:50:44;;;;30.30
70969;BMP280;58630;43.022;25.100;2023-07-20T11:53:10;;;;30.30
70969;BMP280;58630;43.022;25.100;2023-07-20T11:55:36;;;;30.40
70969;BMP280;58630;43.022;25.100;2023-07-20T11:58:02;;;;30.40
70969;BMP280;58630;43.022;25.100;2023-07-20T12:00:28;;;;30.50
70969;BMP280;58630;43.022;25.100;2023-07-20T12:02:53;;;;30.50
70969;BMP280;58630;43.022;25.100;2023-07-20T12:05:19;;;;30.60
70969;BMP280;58630;43.022;25.100;2023-07-20T12:07:44;;;;30.60
70969;BMP280;58630;43.022;25.100;2023-07-20T12:10:11;;;;30.60
70969;BMP280;58630;43.022;25.100;2023-07-20T12:12:40;;;;30.60
70969;BMP280;58630;43.022;25.100;2023-07-20T12:17:58;;;;30.90
70969;BMP280;58630;43.022;25.100;2023-07-20T12:20:33;;;;31.00
70969;BMP280;58630;43.022;25.100;2023-07-20T12:23:02;;;;31.10
70969;BMP280;58630;43.022;25.100;2023-07-20T12:25:37;;;;31.20
70969;BMP280;58630;43.022;25.100;2023-07-20T12:28:10;;;;31.20
70969;BMP280;58630;43.022;25.100;2023-07-20T12:30:36;;;;31.30
70969;BMP280;58630;43.022;25.100;2023-07-20T12:33:02;;;;31.40
70969;BMP280;58630;43.022;25.100;2023-07-20T12:35:28;;;;31.40
70969;BMP280;58630;43.022;25.100;2023-07-20T12:37:55;;;;31.40
70969;BMP280;58630;43.022;25.100;2023-07-20T12:40:20;;;;31.50
70969;BMP280;58630;43.022;25.100;2023-07-20T12:42:46;;;;31.50
70969;BMP280;58630;43.022;25.100;2023-07-20T12:45:11;;;;31.60
70969;BMP280;58630;43.022;25.100;2023-07-20T12:47:39;;;;31.70
70969;BMP280;58630;43.022;25.100;2023-07-20T12:50:04;;;;31.90
70969;BMP280;58630;43.022;25.100;2023-07-20T12:52:31;;;;32.10
70969;BMP280;58630;43.022;25.100;2023-07-20T12:54:57;;;;32.30
70969;BMP280;58630;43.022;25.100;2023-07-20T12:57:23;;;;32.30
70969;BMP280;58630;43.022;25.100;2023-07-20T12:59:49;;;;32.40
70969;BMP280;58630;43.022;25.100;2023-07-20T13:02:14;;;;32.60
70969;BMP280;58630;43.022;25.100;2023-07-20T13:04:40;;;;32.80
70969;BMP280;58630;43.022;25.100;2023-07-20T13:07:09;;;;33.00
70969;BMP280;58630;43.022;25.100;2023-07-20T13:09:34;;;;33.20
70969;BMP280;58630;43.022;25.100;2023-07-20T13:12:00;;;;33.20
70969;BMP280;58630;43.022;25.100;2023-07-20T13:14:26;;;;33.20
70969;BMP280;58630;43.022;25.100;2023-07-20T13:16:55;;;;33.20
70969;BMP280;58630;43.022;25.100;2023-07-20T13:19:20;;;;33.40
70969;BMP280;58630;43.022;25.100;2023-07-20T13:21:46;;;;33.50
70969;BMP280;58630;43.022;25.100;2023-07-20T13:24:12;;;;33.70
70969;BMP280;58630;43.022;25.100;2023-07-20T13:26:37;;;;33.60
70969;BMP280;58630;43.022;25.100;2023-07-20T13:29:03;;;;33.50
70969;BMP280;58630;43.022;25.100;2023-07-20T13:31:28;;;;33.50
70969;BMP280;58630;43.022;25.100;2023-07-20T13:33:54;;;;33.40
70969;BMP280;58630;43.022;25.100;2023-07-20T13:36:20;;;;33.40
70969;BMP280;58630;43.022;25.100;2023-07-20T13:38:46;;;;33.40
70969;BMP280;58630;43.022;25.100;2023-07-20T13:41:12;;;;33.50
70969;BMP280;58630;43.022;25.100;2023-07-20T13:43:37;;;;33.70
70969;BMP280;58630;43.022;25.100;2023-07-20T13:46:03;;;;34.00
70969;BMP280;58630;43.022;25.100;2023-07-20T13:48:28;;;;34.20
70969;BMP280;58630;43.022;25.100;2023-07-20T13:50:54;;;;34.50
70969;BMP280;58630;43.022;25.100;2023-07-20T13:53:20;;;;34.60
70969;BMP280;58630;43.022;25.100;2023-07-20T13:55:47;;;;34.80
70969;BMP280;58630;43.022;25.100;2023-07-20T13:58:13;;;;35.00
70969;BMP280;58630;43.022;25.100;2023-07-20T14:00:38;;;;35.10
70969;BMP280;58630;43.022;25.100;2023-07-20T14:03:04;;;;35.40
70969;BMP280;58630;43.022;25.100;2023-07-20T14:05:29;;;;35.50
70969;BMP280;58630;43.022;25.100;2023-07-20T14:07:55;;;;35.60
70969;BMP280;58630;43.022;25.100;2023-07-20T14:10:21;;;;35.70
70969;BMP280;58630;43.022;25.100;2023-07-20T14:12:46;;;;35.80
70969;BMP280;58630;43.022;25.100;2023-07-20T14:15:12;;;;35.80
70969;BMP280;58630;43.022;25.100;2023-07-20T14:17:37;;;;35.80
70969;BMP280;58630;43.022;25.100;2023-07-20T14:20:03;;;;35.90
70969;BMP280;58630;43.022;25.100;2023-07-20T14:22:31;;;;36.00
70969;BMP280;58630;43.022;25.100;2023-07-20T14:24:57;;;;36.10
70969;BMP280;58630;43.022;25.100;2023-07-20T14:27:23;;;;36.20
70969;BMP280;58630;43.022;25.100;2023-07-20T14:29:48;;;;36.30
70969;BMP280;58630;43.022;25.100;2023-07-20T14:32:14;;;;36.40
70969;BMP280;58630;43.022;25.100;2023-07-20T14:34:39;;;;36.40
70969;BMP280;58630;43.022;25.100;2023-07-20T14:37:06;;;;36.60
70969;BMP280;58630;43.022;25.100;2023-07-20T14:39:31;;;;36.70
70969;BMP280;58630;43.022;25.100;2023-07-20T14:41:57;;;;36.80
70969;BMP280;58630;43.022;25.100;2023-07-20T14:44:23;;;;37.00
70969;BMP280;58630;43.022;25.100;2023-07-20T14:46:48;;;;37.20
70969;BMP280;58630;43.022;25.100;2023-07-20T14:49:14;;;;37.30
70969;BMP280;58630;43.022;25.100;2023-07-20T14:51:39;;;;37.10
70969;BMP280;58630;43.022;25.100;2023-07-20T14:54:09;;;;37.10
70969;BMP280;58630;43.022;25.100;2023-07-20T14:56:35;;;;37.00
70969;BMP280;58630;43.022;25.100;2023-07-20T14:59:01;;;;37.00
70969;BMP280;58630;43.022;25.100;2023-07-20T15:01:26;;;;36.90
70969;BMP280;58630;43.022;25.100;2023-07-20T15:03:52;;;;36.90
70969;BMP280;58630;43.022;25.100;2023-07-20T15:06:19;;;;36.80
70969;BMP280;58630;43.022;25.100;2023-07-20T15:08:44;;;;37.00
70969;BMP280;58630;43.022;25.100;2023-07-20T15:11:10;;;;37.00
70969;BMP280;58630;43.022;25.100;2023-07-20T15:13:35;;;;37.10
70969;BMP280;58630;43.022;25.100;2023-07-20T15:16:01;;;;37.30
70969;BMP280;58630;43.022;25.100;2023-07-20T15:18:26;;;;37.30
70969;BMP280;58630;43.022;25.100;2023-07-20T15:20:52;;;;37.50
70969;BMP280;58630;43.022;25.100;2023-07-20T15:23:19;;;;37.50
70969;BMP280;58630;43.022;25.100;2023-07-20T15:25:45;;;;37.70
70969;BMP280;58630;43.022;25.100;2023-07-20T15:28:10;;;;37.70
70969;BMP280;58630;43.022;25.100;2023-07-20T15:30:36;;;;37.80
70969;BMP280;58630;43.022;25.100;2023-07-20T15:33:02;;;;37.90
70969;BMP280;58630;43.022;25.100;2023-07-20T15:35:27;;;;38.00
70969;BMP280;58630;43.022;25.100;2023-07-20T15:37:53;;;;38.10
70969;BMP280;58630;43.022;25.100;2023-07-20T15:40:18;;;;38.10
70969;BMP280;58630;43.022;25.100;2023-07-20T15:42:44;;;;38.20
70969;BMP280;58630;43.022;25.100;2023-07-20T15:45:10;;;;38.20
70969;BMP280;58630;43.022;25.100;2023-07-20T15:47:35;;;;38.20
70969;BMP280;58630;43.022;25.100;2023-07-20T15:50:01;;;;38.30
70969;BMP280;58630;43.022;25.100;2023-07-20T15:52:27;;;;38.30
70969;BMP280;58630;43.022;25.100;2023-07-20T15:54:52;;;;38.20
70969;BMP280;58630;43.022;25.100;2023-07-20T15:57:18;;;;38.10
70969;BMP280;58630;43.022;25.100;2023-07-20T15:59:44;;;;38.10
70969;BMP280;58630;43.022;25.100;2023-07-20T16:02:10;;;;38.20
70969;BMP280;58630;43.022;25.100;2023-07-20T16:04:35;;;;38.20